Time,TemperatureF,DewpointF,PressureIn,WindDirection,WindDirectionDegrees,WindSpeedMPH,WindSpeedGustMPH,Humidity,HourlyPrecipIn,Conditions,Clouds,dailyrainin,SoftwareType,DateUTC
2013-07-15 00:04:00,91.8,66.0,29.69,SSW,211,0.0,-999.0,43,-99.99,,,0.02,weatherlink.com 1.10,2013-07-15 07:04:00,
2013-07-15 00:19:00,91.4,69.0,29.69,SSW,211,0.0,-999.0,48,-99.99,,,0.00,weatherlink.com 1.10,2013-07-15 07:19:00,
2013-07-15 00:34:00,90.9,69.0,29.69,SSW,211,0.0,-999.0,48,-99.99,,,0.00,weatherlink.com 1.10,2013-07-15 07:34:00,
2013-07-15 00:49:00,91.5,66.0,29.69,SSW,200,4.0,-999.0,43,-99.99,,,0.00,weatherlink.com 1.10,2013-07-15 07:49:00,
2013-07-15 01:04:00,93.2,66.0,29.69,South,183,6.0,-999.0,40,-99.99,,,0.00,weatherlink.com 1.10,2013-07-15 08:04:00,
2013-07-15 01:19:00,93.0,66.0,29.69,South,183,2.0,-999.0,41,-99.99,,,0.00,weatherlink.com 1.10,2013-07-15 08:19:00,
2013-07-15 01:34:00,92.3,65.0,29.69,South,183,0.0,-999.0,41,-99.99,,,0.00,weatherlink.com 1.10,2013-07-15 08:34:00,
2013-07-15 01:49:00,91.6,66.0,29.69,South,183,0.0,-999.0,43,-99.99,,,0.00,weatherlink.com 1.10,2013-07-15 08:49:00,
2013-07-15 02:04:00,90.6,66.0,29.69,South,183,0.0,-999.0,45,-99.99,,,0.00,weatherlink.com 1.10,2013-07-15 09:04:00,
2013-07-15 02:19:00,90.2,65.0,29.69,South,183,0.0,-999.0,44,-99.99,,,0.00,weatherlink.com 1.10,2013-07-15 09:19:00,
2013-07-15 02:34:00,89.8,66.0,29.69,South,183,0.0,-999.0,45,-99.99,,,0.00,weatherlink.com 1.10,2013-07-15 09:34:00,
2013-07-15 02:49:00,89.5,66.0,29.69,South,183,0.0,-999.0,46,-99.99,,,0.00,weatherlink.com 1.10,2013-07-15 09:49:00,
2013-07-15 03:04:00,88.7,68.0,29.69,South,183,0.0,-999.0,51,-99.99,,,0.00,weatherlink.com 1.10,2013-07-15 10:04:00,
2013-07-15 03:19:00,87.2,66.0,29.69,South,183,0.0,-999.0,50,-99.99,,,0.00,weatherlink.com 1.10,2013-07-15 10:19:00,
2013-07-15 03:34:00,87.0,66.0,29.69,South,183,0.0,-999.0,50,-99.99,,,0.00,weatherlink.com 1.10,2013-07-15 10:34:00,
2013-07-15 03:49:00,87.5,66.0,29.69,South,183,0.0,-999.0,49,-99.99,,,0.00,weatherlink.com 1.10,2013-07-15 10:49:00,
2013-07-15 04:04:00,86.9,66.0,29.69,South,183,0.0,-999.0,50,-99.99,,,0.00,weatherlink.com 1.10,2013-07-15 11:04:00,
2013-07-15 04:19:00,86.6,66.0,29.69,South,183,0.0,-999.0,50,-99.99,,,0.00,weatherlink.com 1.10,2013-07-15 11:19:00,
2013-07-15 04:34:00,87.6,66.0,29.69,South,183,0.0,-999.0,49,-99.99,,,0.00,weatherlink.com 1.10,2013-07-15 11:34:00,
2013-07-15 04:49:00,86.9,67.0,29.69,South,183,0.0,-999.0,51,-99.99,,,0.00,weatherlink.com 1.10,2013-07-15 11:49:00,
2013-07-15 05:05:00,88.0,65.0,29.70,South,183,0.0,-999.0,46,-99.99,,,0.00,weatherlink.com 1.10,2013-07-15 12:05:00,
2013-07-15 05:20:00,88.5,65.0,29.69,South,183,0.0,-999.0,45,-99.99,,,0.00,weatherlink.com 1.10,2013-07-15 12:20:00,
2013-07-15 05:35:00,88.3,65.0,29.70,South,183,1.0,-999.0,46,-99.99,,,0.00,weatherlink.com 1.10,2013-07-15 12:35:00,
2013-07-15 05:50:00,88.4,64.0,29.70,South,183,2.0,-999.0,44,-99.99,,,0.00,weatherlink.com 1.10,2013-07-15 12:50:00,
2013-07-15 06:05:00,88.2,64.0,29.70,South,183,0.0,-999.0,45,-99.99,,,0.00,weatherlink.com 1.10,2013-07-15 13:05:00,
2013-07-15 06:20:00,88.4,63.0,29.70,South,183,3.0,-999.0,43,-99.99,,,0.00,weatherlink.com 1.10,2013-07-15 13:20:00,
2013-07-15 06:35:00,88.7,64.0,29.70,South,183,0.0,-999.0,44,-99.99,,,0.00,weatherlink.com 1.10,2013-07-15 13:35:00,
2013-07-15 06:50:00,89.4,63.0,29.71,South,183,3.0,-999.0,42,-99.99,,,0.00,weatherlink.com 1.10,2013-07-15 13:50:00,
2013-07-15 07:05:00,90.6,64.0,29.71,South,183,4.0,-999.0,41,-99.99,,,0.00,weatherlink.com 1.10,2013-07-15 14:05:00,
2013-07-15 07:20:00,91.9,64.0,29.71,South,183,2.0,-999.0,39,-99.99,,,0.00,weatherlink.com 1.10,2013-07-15 14:20:00,
2013-07-15 07:35:00,92.9,64.0,29.71,South,173,2.0,-999.0,38,-99.99,,,0.00,weatherlink.com 1.10,2013-07-15 14:35:00,
2013-07-15 08:05:00,95.0,62.0,29.72,SSE,166,7.0,-999.0,33,-99.99,,,0.00,weatherlink.com 1.10,2013-07-15 15:05:00,
2013-07-15 08:20:00,95.9,61.0,29.72,South,174,4.0,-999.0,31,-99.99,,,0.00,weatherlink.com 1.10,2013-07-15 15:20:00,
2013-07-15 08:35:00,96.7,61.0,29.72,South,175,1.0,-999.0,31,-99.99,,,0.00,weatherlink.com 1.10,2013-07-15 15:35:00,
2013-07-15 08:50:00,97.5,60.0,29.72,South,174,6.0,-999.0,29,-99.99,,,0.00,weatherlink.com 1.10,2013-07-15 15:50:00,
2013-07-15 09:20:00,99.4,61.0,29.71,South,175,2.0,-999.0,28,-99.99,,,0.00,weatherlink.com 1.10,2013-07-15 16:20:00,
2013-07-15 09:35:00,100.2,61.0,29.71,South,174,0.0,-999.0,27,-99.99,,,0.00,weatherlink.com 1.10,2013-07-15 16:35:00,
2013-07-15 09:50:00,101.0,60.0,29.71,South,174,1.0,-999.0,26,-99.99,,,0.00,weatherlink.com 1.10,2013-07-15 16:50:00,
2013-07-15 10:05:00,102.0,59.0,29.71,South,174,1.0,-999.0,24,-99.99,,,0.00,weatherlink.com 1.10,2013-07-15 17:05:00,
2013-07-15 10:35:00,103.1,59.0,29.70,SSE,162,0.0,-999.0,23,-99.99,,,0.00,weatherlink.com 1.10,2013-07-15 17:35:00,
2013-07-15 10:50:00,103.7,58.0,29.70,South,175,0.0,-999.0,22,-99.99,,,0.00,weatherlink.com 1.10,2013-07-15 17:50:00,
2013-07-15 11:05:00,104.6,60.0,29.70,South,176,1.0,-999.0,23,-99.99,,,0.00,weatherlink.com 1.10,2013-07-15 18:05:00,
2013-07-15 11:20:00,105.0,59.0,29.69,South,174,0.0,-999.0,22,-99.99,,,0.00,weatherlink.com 1.10,2013-07-15 18:20:00,
2013-07-15 11:50:00,106.1,60.0,29.68,South,182,7.0,-999.0,22,-99.99,,,0.00,weatherlink.com 1.10,2013-07-15 18:50:00,
2013-07-15 12:05:00,105.6,60.0,29.68,SSE,157,5.0,-999.0,22,-99.99,,,0.00,weatherlink.com 1.10,2013-07-15 19:05:00,
2013-07-15 12:35:00,107.0,61.0,29.66,SSW,213,9.0,-999.0,22,-99.99,,,0.00,weatherlink.com 1.10,2013-07-15 19:35:00,
2013-07-15 12:51:00,107.3,60.0,29.66,SSW,193,6.0,-999.0,21,-99.99,,,0.00,weatherlink.com 1.10,2013-07-15 19:51:00,
2013-07-15 13:06:00,108.8,58.0,29.65,SW,219,0.0,-999.0,19,-99.99,,,0.00,weatherlink.com 1.10,2013-07-15 20:06:00,
2013-07-15 13:36:00,108.7,58.0,29.64,SW,224,2.0,-999.0,19,-99.99,,,0.00,weatherlink.com 1.10,2013-07-15 20:36:00,
2013-07-15 13:51:00,109.9,59.0,29.63,SSW,211,2.0,-999.0,19,-99.99,,,0.00,weatherlink.com 1.10,2013-07-15 20:51:00,
2013-07-15 14:21:00,109.7,57.0,29.61,SSW,194,2.0,-999.0,18,-99.99,,,0.00,weatherlink.com 1.10,2013-07-15 21:21:00,
2013-07-15 14:36:00,109.6,57.0,29.61,SSW,200,3.0,-999.0,18,-99.99,,,0.00,weatherlink.com 1.10,2013-07-15 21:36:00,
2013-07-15 14:51:00,110.4,57.0,29.60,SSW,212,4.0,-999.0,17,-99.99,,,0.00,weatherlink.com 1.10,2013-07-15 21:51:00,
2013-07-15 15:21:00,110.1,56.0,29.59,SSE,166,7.0,-999.0,17,-99.99,,,0.00,weatherlink.com 1.10,2013-07-15 22:21:00,
2013-07-15 15:51:00,109.8,56.0,29.57,South,170,4.0,-999.0,17,-99.99,,,0.00,weatherlink.com 1.10,2013-07-15 22:51:00,
2013-07-15 16:06:00,109.9,54.0,29.57,South,184,4.0,-999.0,16,-99.99,,,0.00,weatherlink.com 1.10,2013-07-15 23:06:00,
2013-07-15 16:21:00,109.6,56.0,29.57,South,188,2.0,-999.0,17,-99.99,,,0.00,weatherlink.com 1.10,2013-07-15 23:21:00,
2013-07-15 16:36:00,109.8,56.0,29.57,South,188,6.0,-999.0,17,-99.99,,,0.00,weatherlink.com 1.10,2013-07-15 23:36:00,
2013-07-15 16:51:00,110.1,55.0,29.57,SW,227,3.0,-999.0,16,-99.99,,,0.00,weatherlink.com 1.10,2013-07-15 23:51:00,
2013-07-15 17:21:00,110.1,53.0,29.56,SSW,211,2.0,-999.0,15,-99.99,,,0.00,weatherlink.com 1.10,2013-07-16 00:21:00,
2013-07-15 17:36:00,109.2,54.0,29.56,SSW,206,4.0,-999.0,16,-99.99,,,0.00,weatherlink.com 1.10,2013-07-16 00:36:00,
2013-07-15 17:51:00,109.2,56.0,29.56,West,265,1.0,-999.0,17,-99.99,,,0.00,weatherlink.com 1.10,2013-07-16 00:51:00,
2013-07-15 18:06:00,108.8,55.0,29.56,West,271,4.0,-999.0,17,-99.99,,,0.00,weatherlink.com 1.10,2013-07-16 01:06:00,
2013-07-15 18:36:00,107.5,54.0,29.57,West,261,10.0,-999.0,17,-99.99,,,0.00,weatherlink.com 1.10,2013-07-16 01:36:00,
2013-07-15 18:51:00,107.1,54.0,29.57,WSW,252,6.0,-999.0,17,-99.99,,,0.00,weatherlink.com 1.10,2013-07-16 01:51:00,
2013-07-15 19:06:00,106.7,55.0,29.57,SW,221,0.0,-999.0,18,-99.99,,,0.00,weatherlink.com 1.10,2013-07-16 02:06:00,
2013-07-15 19:36:00,104.9,55.0,29.58,WSW,246,2.0,-999.0,19,-99.99,,,0.00,weatherlink.com 1.10,2013-07-16 02:36:00,
2013-07-15 19:51:00,104.2,56.0,29.58,West,259,6.0,-999.0,20,-99.99,,,0.00,weatherlink.com 1.10,2013-07-16 02:51:00,
2013-07-15 20:06:00,103.7,55.0,29.58,West,271,2.0,-999.0,20,-99.99,,,0.00,weatherlink.com 1.10,2013-07-16 03:06:00,
2013-07-15 20:21:00,103.2,56.0,29.59,West,267,2.0,-999.0,21,-99.99,,,0.00,weatherlink.com 1.10,2013-07-16 03:21:00,
2013-07-15 21:06:00,102.0,58.0,29.61,West,267,0.0,-999.0,23,-99.99,,,0.00,weatherlink.com 1.10,2013-07-16 04:06:00,
2013-07-15 21:21:00,100.3,60.0,29.61,West,267,0.0,-999.0,26,-99.99,,,0.00,weatherlink.com 1.10,2013-07-16 04:21:00,
2013-07-15 21:36:00,99.8,59.0,29.62,ESE,114,5.0,-999.0,26,-99.99,,,0.00,weatherlink.com 1.10,2013-07-16 04:36:00,
2013-07-15 21:51:00,99.0,61.0,29.62,ESE,104,7.0,-999.0,28,-99.99,,,0.00,weatherlink.com 1.10,2013-07-16 04:51:00,
2013-07-15 22:06:00,98.3,60.0,29.63,East,99,5.0,-999.0,28,-99.99,,,0.00,weatherlink.com 1.10,2013-07-16 05:06:00,
2013-07-15 22:21:00,98.6,59.0,29.63,East,99,0.0,-999.0,27,-99.99,,,0.00,weatherlink.com 1.10,2013-07-16 05:21:00,
2013-07-15 22:36:00,98.1,56.0,29.63,East,99,0.0,-999.0,24,-99.99,,,0.00,weatherlink.com 1.10,2013-07-16 05:36:00,
2013-07-15 22:51:00,98.3,56.0,29.63,ESE,108,4.0,-999.0,24,-99.99,,,0.00,weatherlink.com 1.10,2013-07-16 05:51:00,
2013-07-15 23:06:00,98.2,57.0,29.64,SSE,160,7.0,-999.0,25,-99.99,,,0.00,weatherlink.com 1.10,2013-07-16 06:06:00,
2013-07-15 23:21:00,97.7,57.0,29.64,SSE,158,7.0,-999.0,26,-99.99,,,0.00,weatherlink.com 1.10,2013-07-16 06:21:00,
2013-07-15 23:36:00,97.0,56.0,29.64,SSE,163,6.0,-999.0,25,-99.99,,,0.00,weatherlink.com 1.10,2013-07-16 06:36:00,
2013-07-15 23:51:00,96.7,54.0,29.64,SSE,163,7.0,-999.0,24,-99.99,,,0.00,weatherlink.com 1.10,2013-07-16 06:51:00,